Time;durP1;ratioP1;P1;durP2;ratioP2;P2;SDS_P1;SDS_P2;PMS_P1;PMS_P2;Temp;Humidity;BMP_temperature;BMP_pressure;BME280_temperature;BME280_humidity;BME280_pressure;Samples;Min_cycle;Max_cycle;Signal;HPM_P1;HPM_P2
2022/02/22 00:01:21;;;;;;;3.10;1.53;;;;;;;5.02;79.58;96559.66;5074789;28;20256;-65
2022/02/22 00:03:46;;;;;;;4.17;1.77;;;;;;;4.87;80.47;96551.22;5074704;28;20192;-65
2022/02/22 00:06:12;;;;;;;4.77;1.67;;;;;;;4.86;80.48;96552.22;5073428;28;20181;-65
2022/02/22 00:08:37;;;;;;;2.43;2.00;;;;;;;4.88;81.52;96549.44;5074599;28;20181;-65
2022/02/22 00:11:03;;;;;;;3.77;1.77;;;;;;;4.87;80.07;96559.03;5074623;28;20253;-65
2022/02/22 00:13:28;;;;;;;3.53;1.63;;;;;;;4.89;80.46;96567.44;5074673;28;20180;-65
2022/02/22 00:15:55;;;;;;;1.93;1.33;;;;;;;5.01;79.79;96565.06;5074298;28;20591;-65
2022/02/22 00:18:21;;;;;;;3.53;1.50;;;;;;;4.93;79.38;96562.63;5074323;28;20232;-65
2022/02/22 00:20:47;;;;;;;4.60;1.43;;;;;;;4.93;78.95;96568.63;5073607;28;20177;-66
2022/02/22 00:23:13;;;;;;;3.07;1.60;;;;;;;4.85;78.55;96553.22;5057542;28;20263;-65
2022/02/22 00:25:39;;;;;;;5.50;1.70;;;;;;;4.95;77.59;96578.81;5073240;28;20292;-65
2022/02/22 00:28:04;;;;;;;4.20;1.97;;;;;;;5.03;77.90;96581.22;5074203;28;20634;-65
2022/02/22 00:30:30;;;;;;;3.60;1.87;;;;;;;5.00;77.58;96592.03;5073935;28;20185;-66
2022/02/22 00:32:55;;;;;;;6.20;2.00;;;;;;;5.05;77.36;96592.22;5073678;28;20666;-65
2022/02/22 00:35:21;;;;;;;5.83;1.90;;;;;;;4.86;77.47;96596.38;5073881;28;20252;-65
2022/02/22 00:37:46;;;;;;;10.17;1.77;;;;;;;4.77;78.56;96589.75;5074368;28;20232;-65
2022/02/22 00:40:13;;;;;;;4.40;1.83;;;;;;;4.94;78.61;96606.59;5073550;28;20239;-65
2022/02/22 00:42:39;;;;;;;3.50;1.67;;;;;;;4.75;77.99;96612.50;5074128;28;20185;-65
2022/02/22 00:45:06;;;;;;;6.40;2.03;;;;;;;4.77;77.87;96614.91;5073832;28;20187;-65
2022/02/22 00:47:32;;;;;;;7.00;1.60;;;;;;;4.75;77.81;96617.69;5073748;28;20227;-66
2022/02/22 00:49:57;;;;;;;6.40;1.67;;;;;;;4.84;77.08;96611.34;5073869;28;20185;-65
2022/02/22 00:52:23;;;;;;;4.77;1.80;;;;;;;4.93;76.70;96619.75;5073309;28;20646;-65
2022/02/22 00:54:49;;;;;;;1.97;1.50;;;;;;;4.80;77.04;96633.50;5074035;28;20181;-64
2022/02/22 00:57:14;;;;;;;4.63;1.73;;;;;;;4.76;77.53;96627.09;5073677;28;20216;-65
2022/02/22 00:59:40;;;;;;;3.97;1.73;;;;;;;4.78;76.81;96629.50;5073285;28;20188;-66
2022/02/22 01:02:05;;;;;;;3.83;1.57;;;;;;;4.76;76.67;96641.84;5073665;28;20184;-65
2022/02/22 01:04:30;;;;;;;5.40;1.60;;;;;;;4.83;76.77;96642.69;5073742;28;20177;-65
2022/02/22 01:06:56;;;;;;;3.17;1.40;;;;;;;4.70;77.00;96632.25;5073204;28;20316;-65
2022/02/22 01:09:22;;;;;;;1.63;1.47;;;;;;;4.66;76.98;96641.41;5071743;28;20629;-65
2022/02/22 01:11:47;;;;;;;5.67;1.90;;;;;;;4.55;76.47;96642.78;5072149;28;20224;-65
2022/02/22 01:14:13;;;;;;;6.50;1.67;;;;;;;4.51;76.81;96652.72;5073119;28;20692;-66
2022/02/22 01:16:38;;;;;;;4.63;1.80;;;;;;;4.47;76.51;96643.72;5071720;28;20177;-65
2022/02/22 01:19:04;;;;;;;6.00;1.70;;;;;;;4.53;76.91;96640.34;5073543;28;20199;-65
2022/02/22 01:21:32;;;;;;;4.83;1.80;;;;;;;4.55;76.42;96658.34;5072090;28;20197;-65
2022/02/22 01:24:00;;;;;;;5.07;1.90;;;;;;;4.57;76.00;96657.13;5073089;28;20173;-65
2022/02/22 01:26:27;;;;;;;4.53;1.97;;;;;;;4.62;76.24;96668.75;5073297;28;20184;-65
2022/02/22 01:28:52;;;;;;;4.10;1.73;;;;;;;4.57;76.62;96656.34;5073383;28;20532;-65
2022/02/22 01:31:18;;;;;;;4.27;2.03;;;;;;;4.55;77.13;96660.94;5072683;28;20177;-65
2022/02/22 01:33:43;;;;;;;3.77;1.50;;;;;;;4.41;77.39;96672.22;5073509;28;20189;-65
2022/02/22 01:36:08;;;;;;;4.50;1.80;;;;;;;4.51;77.70;96681.25;5072828;28;20188;-65
2022/02/22 01:38:34;;;;;;;5.23;1.90;;;;;;;4.44;78.71;96687.41;5072919;28;20584;-65
2022/02/22 01:40:59;;;;;;;3.20;1.73;;;;;;;4.46;78.30;96691.41;5072670;28;20687;-64
2022/02/22 01:43:25;;;;;;;4.87;1.80;;;;;;;4.55;79.06;96700.66;5073290;28;20260;-64
2022/02/22 01:45:50;;;;;;;3.60;1.70;;;;;;;4.47;80.50;96687.03;5073252;28;20260;-65
2022/02/22 01:48:16;;;;;;;2.27;1.73;;;;;;;4.47;82.06;96680.03;5073134;28;20511;-67
2022/02/22 01:50:41;;;;;;;2.87;1.53;;;;;;;4.36;84.23;96693.53;5071572;28;20196;-66
2022/02/22 01:53:09;;;;;;;4.63;2.07;;;;;;;4.28;85.95;96703.28;5072591;28;20216;-66
2022/02/22 01:55:35;;;;;;;8.17;1.93;;;;;;;4.22;86.75;96698.84;5071680;28;20169;-65
2022/02/22 01:58:00;;;;;;;2.27;1.60;;;;;;;4.26;87.05;96694.88;5072737;28;20239;-66
2022/02/22 02:00:27;;;;;;;4.83;2.20;;;;;;;3.92;88.17;96696.41;5072807;28;20172;-65
2022/02/22 02:02:55;;;;;;;2.50;2.30;;;;;;;3.86;88.50;96691.16;5071781;28;20192;-66
2022/02/22 02:05:22;;;;;;;4.50;2.03;;;;;;;3.75;88.46;96702.84;5071315;28;20215;-65
2022/02/22 02:07:48;;;;;;;5.20;2.10;;;;;;;3.87;87.89;96691.00;5072440;28;20657;-64
2022/02/22 02:10:13;;;;;;;2.57;2.03;;;;;;;3.83;87.51;96686.38;5071306;28;20190;-65
2022/02/22 02:12:39;;;;;;;3.10;2.00;;;;;;;3.85;87.04;96692.94;5072441;28;20254;-64
2022/02/22 02:15:06;;;;;;;3.83;2.10;;;;;;;3.87;86.91;96692.78;5072793;28;20177;-65
2022/02/22 02:17:34;;;;;;;3.83;2.13;;;;;;;3.90;85.92;96682.81;5071907;28;20736;-65
2022/02/22 02:20:07;;;;;;;2.70;2.50;;;;;;;3.87;85.40;96688.41;5072191;28;20268;-65
2022/02/22 02:22:33;;;;;;;3.33;1.90;;;;;;;3.86;84.50;96691.16;5070980;28;20536;-65
2022/02/22 02:24:59;;;;;;;4.07;1.90;;;;;;;3.87;84.16;96690.19;5072842;28;20184;-64
2022/02/22 02:27:24;;;;;;;7.93;2.47;;;;;;;3.93;84.26;96695.44;5072613;28;20192;-65
2022/02/22 02:29:49;;;;;;;2.70;2.10;;;;;;;3.89;83.70;96711.56;5072674;28;20188;-64
2022/02/22 02:32:15;;;;;;;3.30;2.17;;;;;;;3.86;84.17;96719.69;5072571;28;20218;-65
2022/02/22 02:34:41;;;;;;;6.40;2.17;;;;;;;3.80;84.32;96725.59;5072940;28;20169;-65
2022/02/22 02:37:06;;;;;;;3.30;1.83;;;;;;;3.80;84.48;96700.50;5072598;28;20524;-65
2022/02/22 02:39:32;;;;;;;4.93;2.20;;;;;;;3.79;85.13;96722.22;5072893;28;20622;-64
2022/02/22 02:41:58;;;;;;;3.27;2.10;;;;;;;3.84;84.57;96716.50;5071694;28;20253;-65
2022/02/22 02:44:24;;;;;;;2.53;2.10;;;;;;;3.82;85.72;96710.69;5072483;28;20276;-64
2022/02/22 02:46:50;;;;;;;8.13;2.10;;;;;;;3.86;85.23;96704.13;5070847;28;20217;-64
2022/02/22 02:49:17;;;;;;;6.57;2.50;;;;;;;3.64;86.11;96705.94;5072523;28;20284;-65
2022/02/22 02:51:43;;;;;;;7.07;2.03;;;;;;;3.76;85.21;96715.63;5071994;28;20197;-65
2022/02/22 02:54:10;;;;;;;3.80;2.33;;;;;;;3.78;85.27;96727.59;5072348;28;20196;-65
2022/02/22 02:56:36;;;;;;;2.53;2.03;;;;;;;3.67;85.13;96718.53;5071062;28;20189;-65
2022/02/22 02:59:05;;;;;;;9.27;2.23;;;;;;;3.60;84.50;96733.19;5072135;28;20192;-66
2022/02/22 03:01:32;;;;;;;3.97;2.60;;;;;;;3.64;84.37;96740.41;5072561;28;20286;-65
2022/02/22 03:03:58;;;;;;;3.47;2.10;;;;;;;3.68;84.52;96740.84;5071750;28;20260;-65
2022/02/22 03:06:23;;;;;;;4.80;1.77;;;;;;;3.65;83.70;96734.25;5072446;28;20228;-65
2022/02/22 03:08:49;;;;;;;10.23;2.50;;;;;;;3.65;83.53;96747.22;5072318;28;20705;-65
2022/02/22 03:11:14;;;;;;;3.97;1.60;;;;;;;3.67;83.86;96754.81;5071763;28;20265;-65
2022/02/22 03:13:41;;;;;;;3.97;2.10;;;;;;;3.66;83.65;96756.59;5072547;28;20185;-65
2022/02/22 03:16:07;;;;;;;5.40;2.10;;;;;;;3.70;82.46;96764.78;5075623;28;20204;-65
2022/02/22 03:18:33;;;;;;;6.93;2.10;;;;;;;3.65;82.22;96755.00;5075596;28;20216;-65
2022/02/22 03:20:58;;;;;;;9.33;1.97;;;;;;;3.67;80.83;96760.00;5075246;28;20262;-66
2022/02/22 03:23:24;;;;;;;6.30;2.23;;;;;;;3.71;81.27;96767.22;5074784;28;20622;-65
2022/02/22 03:25:50;;;;;;;5.00;2.20;;;;;;;3.79;80.47;96761.09;5075663;28;20268;-65
2022/02/22 03:28:18;;;;;;;7.13;2.13;;;;;;;3.69;80.63;96776.16;5074736;28;20219;-65
2022/02/22 03:30:44;;;;;;;4.90;1.93;;;;;;;3.66;81.19;96776.53;5075274;28;20185;-65
2022/02/22 03:33:10;;;;;;;3.30;1.70;;;;;;;3.61;81.59;96784.06;5074873;28;20204;-66
2022/02/22 03:35:36;;;;;;;4.30;2.00;;;;;;;3.65;81.46;96774.91;5075190;28;20271;-65
2022/02/22 03:38:01;;;;;;;8.93;2.03;;;;;;;3.64;82.21;96783.66;5074173;28;20180;-65
2022/02/22 03:40:27;;;;;;;5.43;2.17;;;;;;;3.59;82.00;96783.41;5075455;28;20558;-65
2022/02/22 03:42:53;;;;;;;7.70;2.60;;;;;;;3.63;82.35;96784.66;5074938;28;20177;-65
2022/02/22 03:45:18;;;;;;;6.90;2.63;;;;;;;3.64;82.22;96792.25;5073642;28;20193;-65
2022/02/22 03:47:43;;;;;;;10.63;2.13;;;;;;;3.51;83.28;96806.84;5074708;28;20173;-65
2022/02/22 03:50:11;;;;;;;6.97;2.03;;;;;;;3.54;83.11;96806.47;5074552;28;20189;-65
2022/02/22 03:52:37;;;;;;;6.07;2.23;;;;;;;3.54;83.43;96822.84;5074613;28;20215;-64
2022/02/22 03:55:04;;;;;;;5.73;2.00;;;;;;;3.50;83.76;96842.31;5074804;28;20185;-65
2022/02/22 03:57:30;;;;;;;5.13;1.87;;;;;;;3.57;83.56;96826.84;5074548;28;20189;-64
2022/02/22 03:59:55;;;;;;;6.87;2.37;;;;;;;3.56;84.06;96830.44;5073375;28;20687;-64
2022/02/22 04:02:20;;;;;;;5.80;2.20;;;;;;;3.57;84.69;96843.19;5074790;28;20177;-65
2022/02/22 04:04:46;;;;;;;6.27;2.50;;;;;;;3.57;84.22;96843.19;5074150;28;20515;-65
2022/02/22 04:07:11;;;;;;;5.67;1.87;;;;;;;3.58;83.99;96844.00;5074740;28;20259;-65
2022/02/22 04:09:37;;;;;;;6.50;1.90;;;;;;;3.55;83.58;96865.91;5074699;28;20648;-65
2022/02/22 04:12:03;;;;;;;9.27;2.33;;;;;;;3.60;83.87;96871.34;5074707;28;20239;-65
2022/02/22 04:14:28;;;;;;;5.77;2.13;;;;;;;3.62;84.25;96871.19;5073907;28;20186;-65
2022/02/22 04:16:53;;;;;;;5.50;2.50;;;;;;;3.67;84.23;96869.66;5074201;28;20192;-65
2022/02/22 04:19:19;;;;;;;2.80;2.30;;;;;;;3.72;83.72;96885.47;5074044;28;20181;-65
2022/02/22 04:21:44;;;;;;;6.83;2.30;;;;;;;3.75;81.50;96910.19;5073356;28;20200;-65
2022/02/22 04:24:10;;;;;;;9.53;2.10;;;;;;;3.57;86.35;96913.16;5073813;28;20177;-65
2022/02/22 04:26:35;;;;;;;3.63;2.27;;;;;;;3.42;88.39;96902.00;5073876;28;20243;-65
2022/02/22 04:29:00;;;;;;;5.47;3.07;;;;;;;3.45;88.82;96913.81;5074575;28;20545;-65
2022/02/22 04:31:27;;;;;;;6.23;2.10;;;;;;;3.52;88.32;96923.25;5073978;28;20185;-65
2022/02/22 04:33:53;;;;;;;7.13;2.87;;;;;;;3.58;88.70;96919.94;5073640;28;20200;-66
2022/02/22 04:36:19;;;;;;;4.30;2.90;;;;;;;3.73;87.83;96931.09;5074260;28;20174;-65
2022/02/22 04:38:44;;;;;;;2.80;2.57;;;;;;;3.72;87.92;96920.94;5074194;28;20173;-66
2022/02/22 04:41:10;;;;;;;8.40;3.07;;;;;;;3.69;87.07;96922.09;5074258;28;20177;-65
2022/02/22 04:43:35;;;;;;;3.63;2.50;;;;;;;3.72;86.98;96921.75;5074065;28;20187;-65
2022/02/22 04:46:00;;;;;;;5.03;2.43;;;;;;;3.82;87.04;96920.66;5073348;28;20185;-66
2022/02/22 04:48:26;;;;;;;5.27;2.70;;;;;;;3.75;86.14;96933.53;5074054;28;20181;-65
2022/02/22 04:50:51;;;;;;;6.63;2.63;;;;;;;3.60;86.77;96935.31;5073872;28;20315;-65
2022/02/22 04:53:16;;;;;;;6.33;3.03;;;;;;;3.62;86.79;96930.78;5073458;28;20201;-65
2022/02/22 04:55:42;;;;;;;5.73;2.80;;;;;;;3.62;86.29;96941.16;5073650;28;20691;-66
2022/02/22 04:58:07;;;;;;;3.60;2.53;;;;;;;3.63;86.02;96934.94;5073493;28;20204;-65
2022/02/22 05:00:32;;;;;;;3.93;2.60;;;;;;;3.55;85.03;96941.06;5073316;28;20189;-66
2022/02/22 05:02:58;;;;;;;6.87;2.87;;;;;;;3.50;85.37;96945.97;5072915;28;20336;-66
2022/02/22 05:05:23;;;;;;;3.73;2.20;;;;;;;3.57;85.24;96949.44;5072309;28;20204;-65
2022/02/22 05:07:49;;;;;;;6.63;2.87;;;;;;;3.46;85.70;96952.47;5072197;28;20211;-65
2022/02/22 05:10:14;;;;;;;3.70;2.97;;;;;;;3.44;86.09;96949.25;5073288;28;20268;-65
2022/02/22 05:12:39;;;;;;;4.20;2.67;;;;;;;3.34;86.68;96954.69;5073313;28;20201;-66
2022/02/22 05:15:05;;;;;;;10.03;3.40;;;;;;;3.40;86.99;96952.38;5073503;28;20205;-66
2022/02/22 05:17:32;;;;;;;4.50;2.47;;;;;;;3.31;87.33;96959.41;5073189;28;20220;-65
2022/02/22 05:19:57;;;;;;;3.03;2.67;;;;;;;3.22;87.75;96950.94;5073143;28;20652;-66
2022/02/22 05:22:23;;;;;;;3.03;2.67;;;;;;;3.16;87.66;96962.00;5072814;28;20225;-65
2022/02/22 05:24:48;;;;;;;5.10;2.60;;;;;;;3.20;87.70;96958.06;5072548;28;20571;-65
2022/02/22 05:27:13;;;;;;;4.60;3.00;;;;;;;3.26;88.25;96956.56;5072884;28;20260;-66
2022/02/22 05:29:39;;;;;;;6.57;2.83;;;;;;;3.19;87.37;96953.88;5072703;28;20173;-65
2022/02/22 05:32:05;;;;;;;7.23;3.50;;;;;;;3.16;87.50;96967.19;5073258;28;20204;-66
2022/02/22 05:34:34;;;;;;;5.33;2.73;;;;;;;3.12;87.81;96958.13;5073194;28;20246;-66
2022/02/22 05:36:59;;;;;;;3.13;2.63;;;;;;;3.19;87.60;96953.06;5072420;28;20594;-66
2022/02/22 05:39:25;;;;;;;4.30;2.60;;;;;;;3.12;87.91;96959.94;5072747;28;20262;-66
2022/02/22 05:41:50;;;;;;;7.40;3.33;;;;;;;3.15;88.26;96969.94;5072909;28;20181;-65
2022/02/22 05:44:16;;;;;;;10.23;3.00;;;;;;;3.16;87.53;96972.34;5073044;28;20269;-65
2022/02/22 05:46:41;;;;;;;4.33;2.90;;;;;;;3.11;88.13;96977.25;5073109;28;20216;-65
2022/02/22 05:49:07;;;;;;;10.77;2.77;;;;;;;3.11;88.05;96987.63;5072234;28;20177;-65
2022/02/22 05:51:32;;;;;;;5.37;3.00;;;;;;;3.10;87.46;96991.19;5071461;28;20197;-66
2022/02/22 05:53:57;;;;;;;4.90;2.60;;;;;;;3.01;87.75;96986.25;5072851;28;20204;-66
2022/02/22 05:56:23;;;;;;;6.43;3.23;;;;;;;2.98;87.46;96991.75;5072702;28;20591;-65
2022/02/22 05:58:48;;;;;;;7.13;2.73;;;;;;;2.94;87.51;96993.91;5072712;28;20543;-65
2022/02/22 06:01:14;;;;;;;3.57;2.67;;;;;;;3.00;86.99;96982.84;5072825;28;20184;-65
2022/02/22 06:03:39;;;;;;;6.10;2.57;;;;;;;3.10;86.39;96990.38;5072644;28;20656;-65
2022/02/22 06:06:04;;;;;;;6.20;2.73;;;;;;;3.00;86.58;96993.22;5072485;28;20170;-66
2022/02/22 06:08:30;;;;;;;6.30;2.77;;;;;;;2.99;85.54;96986.41;5071659;28;20654;-66
2022/02/22 06:10:56;;;;;;;6.57;2.70;;;;;;;2.90;86.32;97003.78;5072609;28;20264;-65
2022/02/22 06:13:21;;;;;;;4.43;2.60;;;;;;;2.90;86.25;97005.56;5072313;28;20216;-65
2022/02/22 06:15:47;;;;;;;3.77;2.40;;;;;;;2.92;85.85;97017.34;5072504;28;20177;-65
2022/02/22 06:18:13;;;;;;;5.87;2.70;;;;;;;2.99;85.96;97020.06;5072325;28;20221;-65
2022/02/22 06:20:39;;;;;;;6.70;2.70;;;;;;;3.00;85.32;97013.09;5072284;28;20181;-65
2022/02/22 06:23:05;;;;;;;4.50;2.47;;;;;;;3.00;86.20;97013.09;5072037;28;20193;-65
2022/02/22 06:25:31;;;;;;;3.20;2.70;;;;;;;2.93;85.87;97016.38;5071984;28;20190;-65
2022/02/22 06:27:57;;;;;;;4.13;2.50;;;;;;;2.93;85.52;97029.34;5072102;28;20181;-65
2022/02/22 06:30:24;;;;;;;6.50;2.60;;;;;;;2.93;86.55;97026.75;5072200;28;20173;-65
2022/02/22 06:32:51;;;;;;;5.30;3.30;;;;;;;2.95;87.41;97034.34;5071923;28;20205;-65
2022/02/22 06:35:17;;;;;;;7.23;3.20;;;;;;;2.99;87.20;97029.63;5072206;28;20296;-65
2022/02/22 06:37:42;;;;;;;13.20;3.37;;;;;;;3.00;87.74;97036.41;5071856;28;20252;-65
2022/02/22 06:40:09;;;;;;;5.10;3.20;;;;;;;3.19;86.71;97022.97;5072080;28;20566;-65
2022/02/22 06:42:36;;;;;;;8.57;3.17;;;;;;;3.22;87.08;97022.66;5071915;28;20667;-65
2022/02/22 06:45:03;;;;;;;4.50;2.50;;;;;;;3.33;86.55;97030.81;5071927;28;20257;-65
2022/02/22 06:47:29;;;;;;;7.67;2.90;;;;;;;3.40;86.58;97038.66;5072350;28;20185;-65
2022/02/22 06:49:54;;;;;;;7.97;3.20;;;;;;;3.34;86.36;97037.56;5074110;28;20630;-65
2022/02/22 06:52:20;;;;;;;5.73;3.03;;;;;;;3.40;86.82;97043.06;5075716;28;20197;-65
2022/02/22 06:54:46;;;;;;;5.37;2.97;;;;;;;3.52;86.12;97060.56;5076128;28;20185;-65
2022/02/22 06:57:12;;;;;;;5.53;2.93;;;;;;;3.46;86.39;97047.50;5075767;28;20185;-64
2022/02/22 06:59:37;;;;;;;4.10;2.77;;;;;;;3.38;86.95;97058.78;5076116;28;20663;-65
2022/02/22 07:02:03;;;;;;;6.60;3.03;;;;;;;3.40;87.15;97071.56;5075225;28;20703;-64
2022/02/22 07:04:29;;;;;;;8.13;3.20;;;;;;;3.43;86.58;97078.97;5075915;28;20385;-65
2022/02/22 07:06:54;;;;;;;6.30;2.80;;;;;;;3.38;86.38;97079.50;5075929;28;20191;-64
2022/02/22 07:09:19;;;;;;;4.80;3.20;;;;;;;3.32;86.71;97093.94;5075992;28;20207;-64
2022/02/22 07:11:45;;;;;;;6.50;3.10;;;;;;;3.22;86.98;97092.56;5075330;28;20201;-65
2022/02/22 07:14:10;;;;;;;3.90;3.13;;;;;;;3.39;86.62;97098.44;5073916;28;20200;-67
2022/02/22 07:16:36;;;;;;;3.30;3.00;;;;;;;3.68;85.51;97119.22;5073932;28;20204;-67
2022/02/22 07:19:02;;;;;;;3.57;2.60;;;;;;;3.95;87.09;97116.09;5074212;28;20185;-68
2022/02/22 07:21:28;;;;;;;3.83;3.23;;;;;;;4.54;87.63;97122.09;5075294;28;20193;-65
2022/02/22 07:23:53;;;;;;;8.97;3.73;;;;;;;5.33;79.40;97125.59;5075168;28;20251;-65
2022/02/22 07:26:19;;;;;;;8.47;2.80;;;;;;;5.37;77.35;97120.81;5075539;28;20268;-65
2022/02/22 07:28:44;;;;;;;5.70;2.17;;;;;;;4.97;77.75;97136.00;5075371;28;20196;-65
2022/02/22 07:31:11;;;;;;;7.63;2.53;;;;;;;5.01;77.72;97145.03;5074011;28;20181;-65
2022/02/22 07:33:38;;;;;;;3.83;2.30;;;;;;;4.85;78.16;97141.84;5074341;28;20296;-66
2022/02/22 07:36:05;;;;;;;4.50;2.20;;;;;;;5.03;77.73;97148.25;5073178;28;20495;-65
2022/02/22 07:38:30;;;;;;;6.10;2.37;;;;;;;5.07;77.02;97161.69;5073284;28;20252;-66
2022/02/22 07:40:56;;;;;;;5.80;2.30;;;;;;;4.93;77.28;97170.31;5070326;28;20180;-65
2022/02/22 07:43:22;;;;;;;6.97;2.40;;;;;;;5.18;76.98;97182.03;5074873;28;20543;-65
2022/02/22 07:45:47;;;;;;;4.10;2.00;;;;;;;5.18;76.43;97176.81;5075069;28;20177;-65
2022/02/22 07:48:13;;;;;;;2.87;2.27;;;;;;;5.29;75.80;97176.34;5074816;28;20185;-66
2022/02/22 07:50:38;;;;;;;8.67;2.37;;;;;;;5.49;74.81;97179.13;5074960;28;20177;-66
2022/02/22 07:53:05;;;;;;;9.37;2.50;;;;;;;5.76;73.53;97185.41;5074096;28;20193;-66
2022/02/22 07:55:30;;;;;;;4.60;2.10;;;;;;;5.83;72.79;97187.06;5074819;28;20504;-65
2022/02/22 07:57:55;;;;;;;3.67;1.87;;;;;;;5.94;72.31;97198.81;5071774;28;20230;-66
2022/02/22 08:00:21;;;;;;;10.20;2.40;;;;;;;6.18;71.38;97208.00;5073010;28;20170;-66
2022/02/22 08:02:46;;;;;;;8.77;2.40;;;;;;;6.26;70.98;97208.66;5074175;28;20265;-66
2022/02/22 08:05:12;;;;;;;4.90;2.20;;;;;;;6.38;69.59;97211.56;5085046;28;20260;-66
2022/02/22 08:07:37;;;;;;;7.20;2.00;;;;;;;6.62;69.13;97208.53;5093918;28;20173;-66
2022/02/22 08:10:05;;;;;;;5.20;2.20;;;;;;;6.60;68.94;97214.91;5078147;28;20173;-65
2022/02/22 08:12:30;;;;;;;5.83;2.63;;;;;;;6.91;68.15;97217.13;5074299;28;20204;-65
2022/02/22 08:14:56;;;;;;;6.40;2.07;;;;;;;6.78;67.99;97228.25;5074696;28;20173;-66
2022/02/22 08:17:21;;;;;;;6.13;2.10;;;;;;;6.35;69.66;97229.38;5074224;28;20221;-66
2022/02/22 08:19:46;;;;;;;12.30;2.37;;;;;;;6.46;69.68;97232.25;5074104;28;20252;-66
2022/02/22 08:22:12;;;;;;;7.10;2.53;;;;;;;6.86;70.86;97235.09;5091132;28;20180;-66
2022/02/22 08:24:37;;;;;;;6.93;2.30;;;;;;;7.30;68.86;97237.34;5094435;28;20173;-66
2022/02/22 08:27:03;;;;;;;4.20;1.87;;;;;;;7.21;67.15;97241.09;5093549;28;20179;-65
2022/02/22 08:29:31;;;;;;;10.00;2.07;;;;;;;6.99;66.57;97250.81;5094650;28;20169;-65
2022/02/22 08:31:56;;;;;;;3.07;1.90;;;;;;;6.89;67.39;97252.97;5094902;28;20196;-65
2022/02/22 08:34:21;;;;;;;11.00;2.53;;;;;;;6.44;68.06;97256.88;5094377;28;20252;-65
2022/02/22 08:36:47;;;;;;;5.20;2.10;;;;;;;6.92;67.48;97244.75;5094196;28;20175;-65
2022/02/22 08:39:12;;;;;;;7.60;2.43;;;;;;;7.05;67.07;97250.06;5094367;28;20165;-66
2022/02/22 08:41:38;;;;;;;3.20;2.20;;;;;;;7.34;65.78;97252.41;5094161;28;20172;-65
2022/02/22 08:44:04;;;;;;;5.63;1.73;;;;;;;7.47;64.60;97247.22;5094146;28;20204;-65
2022/02/22 08:46:30;;;;;;;4.77;2.17;;;;;;;7.40;64.33;97254.22;5094353;28;20187;-65
2022/02/22 08:48:55;;;;;;;4.47;1.77;;;;;;;7.24;64.42;97262.38;5094544;28;20620;-65
2022/02/22 08:51:21;;;;;;;4.07;1.70;;;;;;;7.31;64.57;97265.00;5083392;28;20181;-65
2022/02/22 08:53:46;;;;;;;3.50;1.97;;;;;;;6.90;66.38;97260.59;5073029;28;20194;-65
2022/02/22 08:56:13;;;;;;;5.97;2.13;;;;;;;7.11;65.40;97267.53;5073582;28;20208;-65
2022/02/22 08:58:38;;;;;;;5.33;1.70;;;;;;;7.13;65.26;97275.97;5073557;28;20637;-65
2022/02/22 09:01:04;;;;;;;9.40;2.30;;;;;;;6.87;65.68;97258.34;5072972;28;20177;-65
2022/02/22 09:03:29;;;;;;;3.90;1.67;;;;;;;6.81;66.61;97266.13;5073810;28;20563;-65
2022/02/22 09:05:55;;;;;;;7.53;2.60;;;;;;;6.76;67.12;97252.88;5077415;28;20172;-65
2022/02/22 09:08:21;;;;;;;5.17;2.10;;;;;;;6.81;66.32;97269.53;5072012;28;20196;-65
2022/02/22 09:10:49;;;;;;;8.90;1.97;;;;;;;6.68;67.09;97259.88;5073036;28;20177;-65
2022/02/22 09:13:15;;;;;;;2.60;1.40;;;;;;;6.72;66.75;97278.50;5072976;28;20288;-65
2022/02/22 09:15:40;;;;;;;3.67;1.53;;;;;;;6.59;66.78;97276.59;5073002;28;20265;-66
2022/02/22 09:18:06;;;;;;;4.87;1.80;;;;;;;6.69;67.43;97278.88;5072667;28;20237;-65
2022/02/22 09:20:32;;;;;;;2.93;1.80;;;;;;;6.66;67.02;97281.88;5072890;28;20177;-65
2022/02/22 09:22:58;;;;;;;3.50;1.57;;;;;;;6.39;68.65;97278.25;5071110;28;20188;-66
2022/02/22 09:25:24;;;;;;;5.07;1.63;;;;;;;6.38;68.79;97281.84;5054479;28;20526;-64
2022/02/22 09:27:51;;;;;;;7.93;1.93;;;;;;;6.52;68.85;97280.94;5072199;28;20189;-64
2022/02/22 09:30:18;;;;;;;5.07;2.20;;;;;;;6.66;68.62;97287.88;5072740;28;20184;-65
2022/02/22 09:32:46;;;;;;;3.27;2.07;;;;;;;6.42;69.38;97282.28;5072496;28;20224;-65
2022/02/22 09:35:14;;;;;;;4.03;1.60;;;;;;;6.48;69.42;97279.72;5072427;28;20178;-66
2022/02/22 09:37:39;;;;;;;3.23;1.67;;;;;;;6.50;69.74;97275.16;5071930;28;20193;-66
2022/02/22 09:40:06;;;;;;;2.87;2.00;;;;;;;6.65;69.50;97280.25;5056573;28;20176;-66
2022/02/22 09:42:31;;;;;;;3.33;1.80;;;;;;;6.95;68.72;97278.25;5072462;28;20622;-66
2022/02/22 09:44:57;;;;;;;2.50;1.70;;;;;;;6.97;68.50;97271.84;5071617;28;20188;-67
2022/02/22 09:47:22;;;;;;;6.33;2.17;;;;;;;6.94;67.96;97279.25;5070955;28;20200;-66
2022/02/22 09:49:48;;;;;;;4.10;1.67;;;;;;;6.93;68.07;97275.84;5072145;28;20582;-66
2022/02/22 09:52:13;;;;;;;5.07;1.80;;;;;;;6.76;68.52;97292.75;5072167;28;20200;-66
2022/02/22 09:54:39;;;;;;;8.50;2.03;;;;;;;6.57;69.20;97286.44;5072649;28;20662;-66
2022/02/22 09:57:04;;;;;;;4.50;1.70;;;;;;;6.63;68.36;97290.84;5070652;28;20796;-65
2022/02/22 09:59:30;;;;;;;5.50;1.70;;;;;;;6.81;68.37;97295.59;5072258;28;20184;-66
2022/02/22 10:01:57;;;;;;;2.50;1.40;;;;;;;6.76;67.78;97294.56;5072186;28;20268;-65
2022/02/22 10:04:23;;;;;;;3.40;1.60;;;;;;;6.72;68.25;97301.94;5071651;28;20260;-66
2022/02/22 10:06:50;;;;;;;3.17;1.73;;;;;;;6.75;68.15;97295.53;5071897;28;20185;-66
2022/02/22 10:09:16;;;;;;;4.60;1.77;;;;;;;6.62;68.19;97299.69;5077281;28;20563;-65
2022/02/22 10:11:50;;;;;;;3.73;2.03;;;;;;;7.06;68.07;97290.75;5092534;28;20180;-66
2022/02/22 10:14:29;;;;;;;5.07;2.07;;;;;;;7.16;67.11;97286.00;5078242;28;20173;-66
2022/02/22 10:16:55;;;;;;;2.27;1.60;;;;;;;7.39;66.06;97278.69;5071474;28;20185;-66
2022/02/22 10:19:24;;;;;;;4.57;1.57;;;;;;;7.71;65.46;97290.25;5070700;28;20806;-65
2022/02/22 10:21:54;;;;;;;3.70;1.77;;;;;;;7.55;65.44;97277.56;5071569;28;20545;-66
2022/02/22 10:24:21;;;;;;;5.13;1.60;;;;;;;7.65;65.37;97279.78;5071529;28;20514;-66
2022/02/22 10:26:47;;;;;;;3.63;1.83;;;;;;;7.74;64.79;97287.25;5076010;28;20243;-66
2022/02/22 10:29:19;;;;;;;4.67;1.50;;;;;;;7.59;65.70;97288.38;5074681;28;20177;-65
2022/02/22 10:31:46;;;;;;;2.57;1.60;;;;;;;8.03;64.79;97283.50;5074897;28;20314;-66
2022/02/22 10:34:12;;;;;;;6.33;1.70;;;;;;;8.07;64.37;97284.72;5075646;28;20216;-66
2022/02/22 10:36:40;;;;;;;4.23;1.87;;;;;;;7.93;64.82;97275.25;5076190;28;20212;-65
2022/02/22 10:39:08;;;;;;;6.97;2.10;;;;;;;8.00;64.59;97283.09;5076091;28;20181;-66
2022/02/22 10:41:35;;;;;;;5.33;2.17;;;;;;;8.04;65.11;97282.50;5075756;28;20223;-65
2022/02/22 10:44:02;;;;;;;6.20;1.90;;;;;;;7.87;65.51;97287.28;5075988;28;20228;-65
2022/02/22 10:46:29;;;;;;;4.57;2.13;;;;;;;8.12;65.39;97282.31;5073385;28;20176;-66
2022/02/22 10:49:15;;;;;;;8.13;1.90;;;;;;;8.14;65.44;97272.47;5073289;28;20199;-65
2022/02/22 10:51:51;;;;;;;5.17;1.90;;;;;;;8.46;64.17;97270.13;5075174;28;20645;-65
2022/02/22 10:54:25;;;;;;;4.50;1.97;;;;;;;9.00;63.12;97280.31;5075148;28;20181;-66
2022/02/22 10:56:52;;;;;;;5.43;1.90;;;;;;;8.65;63.67;97277.94;5075098;28;20630;-66
2022/02/22 10:59:19;;;;;;;3.43;2.20;;;;;;;8.91;63.14;97281.56;5075233;28;20227;-65
2022/02/22 11:01:44;;;;;;;6.13;1.93;;;;;;;8.62;63.37;97286.22;5074377;28;20205;-65
2022/02/22 11:04:11;;;;;;;4.03;1.80;;;;;;;8.53;63.16;97278.75;5075756;28;20169;-65
2022/02/22 11:06:38;;;;;;;7.77;2.00;;;;;;;8.47;63.60;97282.97;5083559;28;20181;-66
2022/02/22 11:09:04;;;;;;;3.87;2.00;;;;;;;8.44;63.90;97277.34;5083440;28;20180;-66
2022/02/22 11:11:32;;;;;;;10.10;2.47;;;;;;;8.54;63.55;97275.13;5074630;28;20188;-66
2022/02/22 11:14:06;;;;;;;4.63;1.80;;;;;;;8.60;63.81;97272.53;5074935;28;20642;-65
2022/02/22 11:16:43;;;;;;;3.67;1.77;;;;;;;8.49;63.72;97274.94;5073410;28;20181;-65
2022/02/22 11:19:19;;;;;;;5.90;2.20;;;;;;;8.44;63.51;97272.13;5074755;28;20276;-67
2022/02/22 11:21:46;;;;;;;5.10;1.93;;;;;;;8.42;64.33;97277.53;5074464;28;20387;-67
2022/02/22 11:24:12;;;;;;;4.63;1.70;;;;;;;8.34;64.33;97275.16;5074186;28;20196;-65
2022/02/22 11:26:51;;;;;;;3.90;1.63;;;;;;;8.65;64.11;97269.31;5074193;28;20275;-67
2022/02/22 11:29:18;;;;;;;2.57;1.60;;;;;;;8.30;64.67;97272.13;5074713;28;20264;-66
2022/02/22 11:31:58;;;;;;;4.07;2.33;;;;;;;8.38;65.07;97263.28;5056627;28;20194;-66
2022/02/22 11:34:35;;;;;;;4.00;1.77;;;;;;;8.66;66.04;97263.88;5074930;28;20169;-66
2022/02/22 11:37:03;;;;;;;3.17;1.80;;;;;;;8.93;65.97;97250.78;5074933;28;20177;-65